createdAt,value
2019-04-16T00:00:49.008Z,66.760254
2019-04-16T00:01:49.064Z,66.656494
2019-04-16T00:02:51.167Z,67.895508
2019-04-16T00:03:53.620Z,66.967773
2019-04-16T00:04:49.266Z,66.760254
2019-04-16T00:05:49.307Z,67.272949
2019-04-16T00:06:50.354Z,66.656494
2019-04-16T00:07:49.412Z,66.241455
2019-04-16T00:08:49.498Z,66.656494
2019-04-16T00:09:49.565Z,66.864014
2019-04-16T00:10:49.638Z,66.864014
2019-04-16T00:11:49.726Z,67.205811
2019-04-16T00:12:49.767Z,67.822266
2019-04-16T00:13:49.874Z,67.718506
2019-04-16T00:14:50.940Z,67.614746
2019-04-16T00:15:50.199Z,67.303467
2019-04-16T00:16:50.095Z,67.303467
2019-04-16T00:17:50.174Z,67.718506
2019-04-16T00:18:56.971Z,67.614746
2019-04-16T00:19:51.244Z,67.303467
2019-04-16T00:20:51.381Z,68.133545
2019-04-16T00:21:50.450Z,68.75
2019-04-16T00:22:50.538Z,67.926025
2019-04-16T00:23:51.595Z,67.614746
2019-04-16T00:24:50.659Z,67.718506
2019-04-16T00:25:52.001Z,67.510986
2019-04-16T00:26:50.845Z,67.510986
2019-04-16T00:27:50.893Z,67.718506
2019-04-16T00:28:50.922Z,67.822266
2019-04-16T00:29:51.952Z,68.85376
2019-04-16T00:30:52.003Z,68.237305
2019-04-16T00:31:52.105Z,67.822266
2019-04-16T00:32:51.182Z,67.541504
2019-04-16T00:33:51.237Z,67.718506
2019-04-16T00:34:51.290Z,67.852783
2019-04-16T00:35:51.356Z,67.852783
2019-04-16T00:36:51.490Z,68.579102
2019-04-16T00:37:52.310Z,68.475342
2019-04-16T00:38:54.099Z,68.164062
2019-04-16T00:39:55.492Z,68.267822
2019-04-16T00:40:51.702Z,67.749023
2019-04-16T00:41:51.788Z,67.956543
2019-04-16T00:42:51.888Z,68.475342
2019-04-16T00:43:51.952Z,68.780518
2019-04-16T00:44:52.017Z,69.195557
2019-04-16T00:45:52.074Z,68.780518
2019-04-16T00:46:52.210Z,68.475342
2019-04-16T00:47:52.280Z,68.579102
2019-04-16T00:48:52.341Z,68.475342
2019-04-16T00:49:52.429Z,68.371582
2019-04-16T00:50:52.456Z,68.267822
2019-04-16T00:51:52.568Z,68.060303
2019-04-16T00:52:53.617Z,67.852783
2019-04-16T00:53:53.695Z,67.645264
2019-04-16T00:54:52.753Z,67.645264
2019-04-16T00:55:52.794Z,68.371582
2019-04-16T00:56:52.880Z,67.749023
2019-04-16T00:57:52.970Z,67.541504
2019-04-16T00:58:53.131Z,67.645264
2019-04-16T00:59:56.025Z,67.645264
2019-04-16T01:00:53.121Z,67.645264
2019-04-16T01:01:53.186Z,67.437744
2019-04-16T01:02:53.282Z,67.340088
2019-04-16T01:03:53.366Z,67.956543
2019-04-16T01:04:53.426Z,67.883301
2019-04-16T01:05:53.498Z,67.779541
2019-04-16T01:06:54.558Z,68.4021
2019-04-16T01:07:53.677Z,68.19458
2019-04-16T01:08:55.023Z,67.779541
2019-04-16T01:09:53.798Z,67.883301
2019-04-16T01:10:53.851Z,68.505859
2019-04-16T01:11:53.919Z,69.537354
2019-04-16T01:12:54.054Z,69.537354
2019-04-16T01:13:55.604Z,69.122314
2019-04-16T01:14:58.654Z,68.609619
2019-04-16T01:15:54.243Z,68.29834
2019-04-16T01:16:54.280Z,68.19458
2019-04-16T01:17:54.396Z,69.329834
2019-04-16T01:18:55.440Z,69.433594
2019-04-16T01:19:55.490Z,68.4021
2019-04-16T01:20:54.573Z,68.4021
2019-04-16T01:21:54.626Z,69.122314
2019-04-16T01:22:54.782Z,68.817139
2019-04-16T01:23:54.839Z,68.505859
2019-04-16T01:24:54.892Z,68.817139
2019-04-16T01:25:55.515Z,68.609619
2019-04-16T01:26:55.335Z,69.329834
2019-04-16T01:27:59.608Z,69.122314
2019-04-16T01:28:55.115Z,68.920898
2019-04-16T01:29:55.209Z,68.640137
2019-04-16T01:30:56.289Z,69.055176
2019-04-16T01:31:56.318Z,68.640137
2019-04-16T01:32:56.405Z,68.743896
2019-04-16T01:33:55.484Z,68.847656
2019-04-16T01:34:55.553Z,68.847656
2019-04-16T01:35:55.616Z,68.743896
2019-04-16T01:36:55.669Z,68.640137
2019-04-16T01:37:56.721Z,69.158936
2019-04-16T01:39:08.439Z,69.366455
2019-04-16T01:39:56.849Z,69.775391
2019-04-16T01:40:55.928Z,69.262695
2019-04-16T01:41:55.982Z,69.470215
2019-04-16T01:42:56.046Z,68.743896
2019-04-16T01:43:57.079Z,68.951416
2019-04-16T01:44:59.315Z,69.567871
2019-04-16T01:46:00.524Z,69.262695
2019-04-16T01:46:56.270Z,69.262695
2019-04-16T01:47:56.322Z,69.567871
2019-04-16T01:48:57.410Z,69.262695
2019-04-16T01:49:57.454Z,69.470215
2019-04-16T01:50:57.497Z,69.262695
2019-04-16T01:51:56.567Z,69.470215
2019-04-16T01:52:56.619Z,69.055176
2019-04-16T01:53:56.804Z,69.158936
2019-04-16T01:54:56.698Z,69.775391
2019-04-16T01:55:57.645Z,70.324707
2019-04-16T01:56:59.429Z,70.013428
2019-04-16T01:57:59.421Z,69.812012
2019-04-16T01:58:56.923Z,70.117188
2019-04-16T01:59:56.963Z,69.500732
2019-04-16T02:00:58.005Z,69.708252
2019-04-16T02:01:58.039Z,70.635986
2019-04-16T02:02:57.100Z,70.013428
2019-04-16T02:03:57.192Z,70.117188
2019-04-16T02:04:57.262Z,70.220947
2019-04-16T02:05:57.310Z,69.708252
2019-04-16T02:06:58.354Z,69.396973
2019-04-16T02:07:59.183Z,69.708252
2019-04-16T02:09:01.514Z,70.013428
2019-04-16T02:09:58.519Z,69.604492
2019-04-16T02:10:57.570Z,70.117188
2019-04-16T02:11:58.603Z,69.293213
2019-04-16T02:12:58.644Z,69.396973
2019-04-16T02:13:57.734Z,69.085693
2019-04-16T02:14:57.780Z,68.878174
2019-04-16T02:15:57.855Z,68.878174
2019-04-16T02:16:57.952Z,69.293213
2019-04-16T02:17:58.711Z,68.981934
2019-04-16T02:19:00.728Z,70.220947
2019-04-16T02:19:58.131Z,69.708252
2019-04-16T02:20:58.152Z,69.604492
2019-04-16T02:21:59.185Z,69.708252
2019-04-16T02:22:59.248Z,69.293213
2019-04-16T02:23:58.351Z,69.500732
2019-04-16T02:24:58.404Z,69.500732
2019-04-16T02:25:58.484Z,69.500732
2019-04-16T02:26:58.527Z,69.085693
2019-04-16T02:27:58.602Z,69.085693
2019-04-16T02:28:59.506Z,69.189453
2019-04-16T02:30:02.291Z,69.812012
2019-04-16T02:30:58.829Z,70.220947
2019-04-16T02:31:59.878Z,69.708252
2019-04-16T02:32:58.957Z,69.842529
2019-04-16T02:33:59.015Z,69.396973
2019-04-16T02:34:59.077Z,69.32373
2019-04-16T02:35:59.136Z,69.63501
2019-04-16T02:37:01.956Z,69.946289
2019-04-16T02:37:59.233Z,69.42749
2019-04-16T02:39:00.314Z,69.116211
2019-04-16T02:39:59.366Z,69.32373
2019-04-16T02:41:00.418Z,69.946289
2019-04-16T02:41:59.462Z,69.73877
2019-04-16T02:43:03.907Z,70.050049
2019-04-16T02:43:59.547Z,69.842529
2019-04-16T02:45:00.627Z,69.73877
2019-04-16T02:45:59.668Z,70.153809
2019-04-16T02:47:04.516Z,69.946289
2019-04-16T02:47:59.767Z,70.153809
2019-04-16T02:49:00.813Z,70.361328
2019-04-16T02:49:59.911Z,70.361328
2019-04-16T02:51:05.042Z,70.257568
2019-04-16T02:52:00.009Z,69.53125
2019-04-16T02:53:01.052Z,69.53125
2019-04-16T02:54:00.189Z,69.946289
2019-04-16T02:55:06.914Z,69.946289
2019-04-16T02:56:00.185Z,70.568848
2019-04-16T02:57:01.245Z,70.080566
2019-04-16T02:58:01.492Z,70.080566
2019-04-16T02:59:00.343Z,69.769287
2019-04-16T03:00:01.389Z,70.599365
2019-04-16T03:01:00.447Z,71.118164
2019-04-16T03:02:00.501Z,70.703125
2019-04-16T03:03:00.575Z,70.184326
2019-04-16T03:04:00.626Z,70.495605
2019-04-16T03:05:00.728Z,70.703125
2019-04-16T03:06:01.588Z,70.391846
2019-04-16T03:07:03.044Z,70.080566
2019-04-16T03:08:01.367Z,70.288086
2019-04-16T03:09:00.917Z,70.703125
2019-04-16T03:10:01.941Z,71.014404
2019-04-16T03:11:02.046Z,70.288086
2019-04-16T03:12:02.104Z,70.184326
2019-04-16T03:13:01.151Z,69.769287
2019-04-16T03:14:01.203Z,69.561768
2019-04-16T03:15:02.160Z,69.769287
2019-04-16T03:16:02.548Z,69.769287
2019-04-16T03:17:01.443Z,70.184326
2019-04-16T03:18:01.474Z,70.111084
2019-04-16T03:19:02.517Z,70.111084
2019-04-16T03:20:01.607Z,70.318604
2019-04-16T03:21:01.691Z,70.214844
2019-04-16T03:22:02.810Z,70.629883
2019-04-16T03:23:04.659Z,70.733643
2019-04-16T03:24:01.868Z,70.941162
2019-04-16T03:25:01.953Z,70.733643
2019-04-16T03:26:03.006Z,70.733643
2019-04-16T03:27:04.797Z,70.941162
2019-04-16T03:28:02.125Z,70.629883
2019-04-16T03:29:02.174Z,70.629883
2019-04-16T03:30:03.308Z,71.148682
2019-04-16T03:31:07.053Z,70.733643
2019-04-16T03:32:03.316Z,71.252441
2019-04-16T03:33:09.458Z,70.837402
2019-04-16T03:34:03.350Z,71.356201
2019-04-16T03:35:02.394Z,71.044922
2019-04-16T03:36:02.497Z,70.941162
2019-04-16T03:37:03.025Z,70.629883
2019-04-16T03:38:04.623Z,70.111084
2019-04-16T03:39:02.634Z,70.422363
2019-04-16T03:40:14.800Z,71.356201
2019-04-16T03:41:03.679Z,70.629883
2019-04-16T03:42:02.726Z,70.837402
2019-04-16T03:43:04.197Z,70.941162
2019-04-16T03:44:03.880Z,71.252441
2019-04-16T03:45:07.774Z,70.526123
2019-04-16T03:46:02.965Z,71.356201
2019-04-16T03:47:03.062Z,71.148682
2019-04-16T03:48:04.117Z,70.837402
2019-04-16T03:49:03.173Z,70.733643
2019-04-16T03:50:03.247Z,70.629883
2019-04-16T03:51:04.341Z,70.837402
2019-04-16T03:52:04.569Z,70.629883
2019-04-16T03:53:03.430Z,70.941162
2019-04-16T03:54:04.955Z,70.526123
2019-04-16T03:55:03.545Z,70.733643
2019-04-16T03:56:03.653Z,71.386719
2019-04-16T03:57:03.703Z,71.075439
2019-04-16T03:58:05.863Z,71.282959
2019-04-16T03:59:03.812Z,70.97168
2019-04-16T04:00:03.846Z,70.76416
2019-04-16T04:01:03.918Z,71.075439
2019-04-16T04:02:05.131Z,70.666504
2019-04-16T04:03:05.005Z,70.458984
2019-04-16T04:04:04.178Z,70.86792
2019-04-16T04:05:06.453Z,70.666504
2019-04-16T04:06:06.614Z,70.86792
2019-04-16T04:07:04.243Z,71.179199
2019-04-16T04:08:04.317Z,71.075439
2019-04-16T04:09:05.547Z,71.386719
2019-04-16T04:10:05.398Z,71.490479
2019-04-16T04:11:08.831Z,71.282959
2019-04-16T04:12:04.534Z,71.594238
2019-04-16T04:13:05.047Z,71.490479
2019-04-16T04:14:05.633Z,71.594238
2019-04-16T04:15:04.702Z,72.009277
2019-04-16T04:16:04.794Z,71.905518
2019-04-16T04:17:06.540Z,71.594238
2019-04-16T04:18:07.602Z,71.386719
2019-04-16T04:19:04.997Z,71.282959
2019-04-16T04:20:05.062Z,71.282959
2019-04-16T04:21:06.144Z,71.594238
2019-04-16T04:22:06.243Z,71.075439
2019-04-16T04:23:05.305Z,71.282959
2019-04-16T04:24:05.358Z,71.282959
2019-04-16T04:25:05.416Z,71.386719
2019-04-16T04:26:08.594Z,71.594238
2019-04-16T04:27:05.561Z,71.42334
2019-04-16T04:28:06.698Z,71.112061
2019-04-16T04:29:06.664Z,71.31958
2019-04-16T04:30:05.719Z,71.42334
2019-04-16T04:31:05.790Z,71.112061
2019-04-16T04:32:05.870Z,71.21582
2019-04-16T04:33:08.119Z,71.31958
2019-04-16T04:34:05.956Z,71.31958
2019-04-16T04:35:07.006Z,71.112061
2019-04-16T04:36:07.062Z,72.045898
2019-04-16T04:37:07.183Z,71.5271
2019-04-16T04:38:06.284Z,71.630859
2019-04-16T04:39:09.306Z,72.253418
2019-04-16T04:40:06.465Z,72.045898
2019-04-16T04:41:06.549Z,72.253418
2019-04-16T04:42:07.661Z,71.5271
2019-04-16T04:43:08.123Z,72.045898
2019-04-16T04:44:06.840Z,71.630859
2019-04-16T04:45:08.727Z,71.5271
2019-04-16T04:46:12.166Z,71.42334
2019-04-16T04:47:07.252Z,71.008301
2019-04-16T04:48:11.100Z,71.21582
2019-04-16T04:49:08.364Z,71.31958
2019-04-16T04:50:07.530Z,71.31958
2019-04-16T04:51:09.043Z,71.630859
2019-04-16T04:52:07.690Z,72.045898
2019-04-16T04:53:07.672Z,71.734619
2019-04-16T04:54:08.824Z,71.838379
2019-04-16T04:55:08.812Z,71.734619
2019-04-16T04:56:07.816Z,72.253418
2019-04-16T04:57:09.002Z,71.838379
2019-04-16T04:58:08.027Z,71.5271
2019-04-16T04:59:08.027Z,71.5271
2019-04-16T05:00:08.525Z,72.149658
2019-04-16T05:01:09.315Z,71.942139
2019-04-16T05:02:10.486Z,72.149658
2019-04-16T05:03:08.344Z,71.734619
2019-04-16T05:04:08.325Z,71.838379
2019-04-16T05:05:09.471Z,72.045898
2019-04-16T05:06:09.625Z,71.630859
2019-04-16T05:07:08.632Z,71.31958
2019-04-16T05:08:08.774Z,72.045898
2019-04-16T05:09:08.657Z,71.838379
2019-04-16T05:10:08.661Z,71.112061
2019-04-16T05:11:08.665Z,71.112061
2019-04-16T05:12:08.704Z,71.112061
2019-04-16T05:13:09.827Z,71.112061
2019-04-16T05:14:09.834Z,71.112061
2019-04-16T05:15:08.874Z,71.31958
2019-04-16T05:16:08.877Z,71.905518
2019-04-16T05:17:08.882Z,71.697998
2019-04-16T05:18:09.683Z,71.179199
2019-04-16T05:19:13.722Z,70.666504
2019-04-16T05:20:08.922Z,70.76416
2019-04-16T05:21:09.050Z,71.282959
2019-04-16T05:22:09.046Z,71.490479
2019-04-16T05:23:10.242Z,71.282959
2019-04-16T05:24:10.275Z,71.594238
2019-04-16T05:25:09.256Z,71.179199
2019-04-16T05:26:09.880Z,71.386719
2019-04-16T05:27:09.478Z,71.594238
2019-04-16T05:28:11.875Z,71.075439
2019-04-16T05:29:09.267Z,71.179199
2019-04-16T05:30:09.273Z,71.282959
2019-04-16T05:31:10.316Z,71.044922
2019-04-16T05:32:10.267Z,70.422363
2019-04-16T05:33:09.341Z,70.629883
2019-04-16T05:34:09.383Z,71.044922
2019-04-16T05:35:10.458Z,71.356201
2019-04-16T05:36:10.730Z,70.941162
2019-04-16T05:37:10.598Z,70.526123
2019-04-16T05:38:09.646Z,70.733643
2019-04-16T05:39:10.656Z,70.599365
2019-04-16T05:40:09.653Z,70.288086
2019-04-16T05:41:13.397Z,70.495605
2019-04-16T05:42:10.937Z,71.118164
2019-04-16T05:43:10.946Z,70.703125
2019-04-16T05:44:11.012Z,70.080566
2019-04-16T05:45:09.978Z,70.184326
2019-04-16T05:46:09.999Z,69.842529
2019-04-16T05:47:10.011Z,69.73877
2019-04-16T05:48:10.148Z,69.946289
2019-04-16T05:49:11.523Z,70.977783
2019-04-16T05:50:11.325Z,70.666504
2019-04-16T05:51:10.500Z,70.050049
2019-04-16T05:52:10.481Z,70.050049
2019-04-16T05:53:12.894Z,70.153809
2019-04-16T05:54:11.931Z,69.946289
2019-04-16T05:55:10.568Z,69.915771
2019-04-16T05:56:10.550Z,69.708252
2019-04-16T05:57:11.556Z,69.708252
2019-04-16T05:58:11.540Z,69.396973
2019-04-16T05:59:10.583Z,69.293213
2019-04-16T06:00:10.684Z,69.671631
2019-04-16T06:01:13.590Z,69.262695
2019-04-16T06:02:10.841Z,69.262695
2019-04-16T06:03:10.988Z,69.671631
2019-04-16T06:04:12.296Z,69.262695
2019-04-16T06:05:12.194Z,68.640137
2019-04-16T06:06:12.184Z,68.328857
2019-04-16T06:07:11.200Z,68.536377
2019-04-16T06:08:11.193Z,67.779541
2019-04-16T06:09:12.147Z,68.19458
2019-04-16T06:10:16.242Z,67.883301
2019-04-16T06:11:11.290Z,67.163086
2019-04-16T06:12:12.431Z,66.955566
2019-04-16T06:13:12.579Z,66.40625
2019-04-16T06:14:16.543Z,66.51001
2019-04-16T06:15:12.749Z,67.541504
2019-04-16T06:16:11.719Z,67.749023
2019-04-16T06:17:12.974Z,66.925049
2019-04-16T06:18:12.860Z,66.101074
2019-04-16T06:19:12.210Z,66.101074
2019-04-16T06:20:12.048Z,65.655518
2019-04-16T06:21:12.055Z,65.551758
2019-04-16T06:22:13.046Z,64.624023
2019-04-16T06:23:13.035Z,64.929199
2019-04-16T06:24:12.031Z,65.655518
2019-04-16T06:25:12.086Z,65.52124
2019-04-16T06:26:15.819Z,64.904785
2019-04-16T06:27:12.214Z,64.489746
2019-04-16T06:28:12.207Z,64.801025
2019-04-16T06:29:12.207Z,65.41748
2019-04-16T06:30:13.230Z,66.760254
2019-04-16T06:31:12.232Z,65.698242
2019-04-16T06:32:12.291Z,65.490723
2019-04-16T06:33:12.291Z,65.386963
2019-04-16T06:34:12.323Z,64.978027
2019-04-16T06:35:13.360Z,65.075684
2019-04-16T06:36:12.341Z,64.666748
2019-04-16T06:37:12.381Z,64.117432
2019-04-16T06:38:13.376Z,64.428711
2019-04-16T06:39:12.390Z,65.460205
2019-04-16T06:40:12.418Z,63.812256
2019-04-16T06:41:12.463Z,64.117432
2019-04-16T06:42:12.499Z,64.398193
2019-04-16T06:43:12.484Z,63.989258
2019-04-16T06:44:13.471Z,63.366699
2019-04-16T06:45:12.629Z,63.366699
2019-04-16T06:46:12.686Z,63.781738
2019-04-16T06:47:12.672Z,63.677979
2019-04-16T06:48:13.853Z,63.885498
2019-04-16T06:49:14.252Z,64.0625
2019-04-16T06:50:12.992Z,63.238525
2019-04-16T06:51:14.271Z,63.031006
2019-04-16T06:52:16.335Z,63.134766
2019-04-16T06:53:13.405Z,63.751221
2019-04-16T06:54:14.552Z,63.824463
2019-04-16T06:55:14.542Z,64.031982
2019-04-16T06:56:13.583Z,63.415527
2019-04-16T06:57:13.597Z,63.824463
2019-04-16T06:58:16.190Z,62.792969
2019-04-16T06:59:16.842Z,63.592529
2019-04-16T07:00:14.680Z,63.592529
2019-04-16T07:01:13.688Z,63.38501
2019-04-16T07:02:13.711Z,63.38501
2019-04-16T07:03:13.725Z,62.561035
2019-04-16T07:04:15.765Z,63.07373
2019-04-16T07:05:15.032Z,62.634277
2019-04-16T07:06:14.055Z,62.841797
2019-04-16T07:07:14.112Z,62.017822
2019-04-16T07:08:17.713Z,62.329102
2019-04-16T07:09:15.268Z,63.146973
2019-04-16T07:10:15.269Z,61.987305
2019-04-16T07:11:15.267Z,62.506104
2019-04-16T07:12:14.317Z,62.506104
2019-04-16T07:13:14.353Z,62.811279
2019-04-16T07:14:15.204Z,62.298584
2019-04-16T07:15:14.525Z,61.755371
2019-04-16T07:16:15.658Z,61.651611
2019-04-16T07:17:17.530Z,61.138916
2019-04-16T07:18:14.888Z,61.859131
2019-04-16T07:19:16.723Z,61.315918
2019-04-16T07:20:14.922Z,60.290527
2019-04-16T07:21:17.446Z,59.979248
2019-04-16T07:22:20.672Z,59.875488
2019-04-16T07:23:15.029Z,60.290527
2019-04-16T07:24:14.949Z,60.15625
2019-04-16T07:25:16.508Z,59.0271
2019-04-16T07:26:16.404Z,58.306885
2019-04-16T07:27:19.414Z,58.178711
2019-04-16T07:28:16.501Z,58.178711
2019-04-16T07:29:15.439Z,57.36084
2019-04-16T07:30:19.761Z,57.769775
2019-04-16T07:31:25.757Z,57.873535
2019-04-16T07:32:16.491Z,57.4646
2019-04-16T07:33:15.518Z,56.817627
2019-04-16T07:34:15.552Z,57.025146
2019-04-16T07:35:15.705Z,57.434082
2019-04-16T07:36:16.710Z,56.512451
2019-04-16T07:37:15.710Z,56.921387
2019-04-16T07:38:15.790Z,57.843018
2019-04-16T07:39:28.614Z,58.355713
2019-04-16T07:40:16.922Z,58.355713
2019-04-16T07:41:17.089Z,57.714844
2019-04-16T07:42:21.331Z,58.026123
2019-04-16T07:43:16.078Z,58.026123
2019-04-16T07:44:17.031Z,57.58667
2019-04-16T07:45:16.028Z,57.281494
2019-04-16T07:46:16.036Z,56.970215
2019-04-16T07:47:19.604Z,56.665039
2019-04-16T07:48:16.060Z,56.152344
2019-04-16T07:49:16.080Z,55.639648
2019-04-16T07:50:16.082Z,56.35376
2019-04-16T07:51:16.093Z,55.944824
2019-04-16T07:52:16.118Z,57.049561
2019-04-16T07:53:16.138Z,56.536865
2019-04-16T07:54:18.742Z,56.12793
2019-04-16T07:55:16.165Z,57.250977
2019-04-16T07:56:16.158Z,55.81665
2019-04-16T07:57:17.170Z,54.89502
2019-04-16T07:58:16.181Z,56.097412
2019-04-16T07:59:16.221Z,55.792236
2019-04-16T08:00:16.257Z,56.408691
2019-04-16T08:01:16.523Z,55.383301
2019-04-16T08:02:17.531Z,54.974365
2019-04-16T08:03:16.261Z,55.969238
2019-04-16T08:04:23.279Z,53.924561
2019-04-16T08:05:17.418Z,53.717041
2019-04-16T08:06:16.404Z,54.614258
2019-04-16T08:07:20.055Z,54.412842
2019-04-16T08:08:16.415Z,53.692627
2019-04-16T08:09:16.439Z,53.186035
2019-04-16T08:10:17.571Z,56.433105
2019-04-16T08:11:16.647Z,54.388428
2019-04-16T08:12:29.765Z,52.648926
2019-04-16T08:13:17.797Z,53.131104
2019-04-16T08:14:17.909Z,53.033447
2019-04-16T08:15:16.956Z,51.629639
2019-04-16T08:16:16.964Z,50.494385
2019-04-16T08:17:16.990Z,46.838379
2019-04-16T08:18:16.994Z,46.350098
2019-04-16T08:19:17.048Z,42.614746
2019-04-16T08:20:20.895Z,41.625977
2019-04-16T08:21:17.181Z,39.831543
2019-04-16T08:22:17.235Z,38.671875
2019-04-16T08:23:19.612Z,38.012695
2019-04-16T08:24:17.288Z,38.293457
2019-04-16T08:25:17.398Z,36.651611
2019-04-16T08:26:18.313Z,35.113525
2019-04-16T08:27:18.930Z,34.674072
2019-04-16T08:28:17.323Z,35.144043
2019-04-16T08:29:17.391Z,33.1604
2019-04-16T08:30:17.414Z,35.058594
2019-04-16T08:31:17.419Z,33.660889
2019-04-16T08:32:17.445Z,33.642578
2019-04-16T08:33:17.463Z,34.008789
2019-04-16T08:34:18.650Z,31.57959
2019-04-16T08:35:17.672Z,32.4646
2019-04-16T08:36:17.677Z,32.849121
2019-04-16T08:37:17.686Z,32.348633
2019-04-16T08:38:17.734Z,31.481934
2019-04-16T08:39:17.884Z,32.623291
2019-04-16T08:40:17.935Z,33.94165
2019-04-16T08:41:21.013Z,34.741211
2019-04-16T08:42:17.933Z,33.428955
2019-04-16T08:43:18.923Z,34.04541
2019-04-16T08:44:18.919Z,34.04541
2019-04-16T08:45:20.554Z,33.325195
2019-04-16T08:46:18.058Z,33.526611
2019-04-16T08:47:18.080Z,33.843994
2019-04-16T08:48:18.870Z,33.874512
2019-04-16T08:49:22.003Z,35.27832
2019-04-16T08:50:18.113Z,34.960938
2019-04-16T08:51:29.547Z,34.362793
2019-04-16T08:52:19.234Z,34.661865
2019-04-16T08:53:18.280Z,33.94165
2019-04-16T08:54:18.882Z,32.727051
2019-04-16T08:55:20.405Z,32.727051
2019-04-16T08:56:18.321Z,32.543945
2019-04-16T08:57:18.344Z,32.342529
2019-04-16T08:58:19.347Z,33.001709
2019-04-16T08:59:18.377Z,35.26001
2019-04-16T09:00:18.439Z,35.479736
2019-04-16T09:01:21.480Z,36.383057
2019-04-16T09:02:18.621Z,36.383057
2019-04-16T09:03:18.655Z,36.486816
2019-04-16T09:04:19.690Z,35.900879
2019-04-16T09:05:19.750Z,36.517334
2019-04-16T09:06:18.758Z,38.250732
2019-04-16T09:07:19.870Z,37.225342
2019-04-16T09:08:21.746Z,38.531494
2019-04-16T09:09:23.984Z,36.901855
2019-04-16T09:10:23.180Z,36.486816
2019-04-16T09:11:23.377Z,36.199951
2019-04-16T09:12:19.952Z,36.114502
2019-04-16T09:13:18.905Z,38.214111
2019-04-16T09:14:20.472Z,36.901855
2019-04-16T09:15:18.987Z,37.390137
2019-04-16T09:16:19.070Z,36.181641
2019-04-16T09:17:19.086Z,37.469482
2019-04-16T09:18:19.250Z,37.756348
2019-04-16T09:19:19.340Z,35.949707
2019-04-16T09:20:22.748Z,36.132812
2019-04-16T09:21:19.493Z,35.931396
2019-04-16T09:22:19.529Z,35.36377
2019-04-16T09:23:19.599Z,37.371826
2019-04-16T09:24:19.590Z,37.872314
2019-04-16T09:25:19.723Z,36.968994
2019-04-16T09:26:23.495Z,36.065674
2019-04-16T09:27:19.813Z,37.084961
2019-04-16T09:28:25.512Z,37.469482
2019-04-16T09:29:19.985Z,35.827637
2019-04-16T09:30:19.986Z,36.920166
2019-04-16T09:31:21.948Z,36.71875
2019-04-16T09:32:20.249Z,35.693359
2019-04-16T09:33:20.363Z,35.778809
2019-04-16T09:34:21.469Z,34.161377
2019-04-16T09:35:20.530Z,34.558105
2019-04-16T09:36:20.494Z,33.740234
2019-04-16T09:37:20.487Z,34.643555
2019-04-16T09:38:21.614Z,35.162354
2019-04-16T09:39:20.608Z,35.864258
2019-04-16T09:40:20.753Z,35.375977
2019-04-16T09:41:20.947Z,37.097168
2019-04-16T09:42:20.974Z,35.949707
2019-04-16T09:43:20.966Z,36.804199
2019-04-16T09:44:21.275Z,37.139893
2019-04-16T09:45:24.511Z,38.873291
2019-04-16T09:46:46.533Z,39.477539
2019-04-16T09:47:22.366Z,39.074707
2019-04-16T09:48:21.477Z,40.618896
2019-04-16T09:49:22.597Z,39.208984
2019-04-16T09:50:22.709Z,39.111328
2019-04-16T09:51:24.938Z,40.820312
2019-04-16T09:52:22.926Z,40.319824
2019-04-16T09:53:32.478Z,39.978027
2019-04-16T09:54:23.043Z,38.751221
2019-04-16T09:55:22.201Z,39.355469
2019-04-16T09:56:22.976Z,38.146973
2019-04-16T09:57:24.315Z,38.049316
2019-04-16T09:58:22.674Z,39.172363
2019-04-16T09:59:23.451Z,39.678955
2019-04-16T10:00:22.613Z,39.074707
2019-04-16T10:01:22.634Z,38.635254
2019-04-16T10:02:22.650Z,37.084961
2019-04-16T10:03:22.643Z,36.352539
2019-04-16T10:04:22.798Z,36.633301
2019-04-16T10:05:22.869Z,38.739014
2019-04-16T10:06:22.961Z,37.939453
2019-04-16T10:07:22.976Z,37.518311
2019-04-16T10:08:23.055Z,36.61499
2019-04-16T10:09:23.239Z,36.315918
2019-04-16T10:10:23.923Z,37.219238
2019-04-16T10:11:23.334Z,36.431885
2019-04-16T10:12:24.608Z,36.749268
2019-04-16T10:13:30.627Z,35.461426
2019-04-16T10:14:24.684Z,38.879395
2019-04-16T10:15:23.700Z,37.084961
2019-04-16T10:16:23.684Z,36.303711
2019-04-16T10:17:23.895Z,36.401367
2019-04-16T10:18:23.841Z,37.609863
2019-04-16T10:19:24.943Z,36.688232
2019-04-16T10:20:24.092Z,38.195801
2019-04-16T10:21:24.112Z,37.286377
2019-04-16T10:22:24.263Z,37.304688
2019-04-16T10:23:24.259Z,37.103271
2019-04-16T10:24:24.276Z,38.012695
2019-04-16T10:25:24.410Z,37.908936
2019-04-16T10:26:24.435Z,36.688232
2019-04-16T10:27:24.541Z,35.662842
2019-04-16T10:28:24.507Z,37.420654
2019-04-16T10:29:25.636Z,34.759521
2019-04-16T10:30:24.732Z,34.344482
2019-04-16T10:31:24.793Z,33.172607
2019-04-16T10:32:24.950Z,35.961914
2019-04-16T10:33:24.895Z,33.929443
2019-04-16T10:34:25.036Z,35.491943
2019-04-16T10:35:26.366Z,35.076904
2019-04-16T10:36:25.270Z,35.058594
2019-04-16T10:37:26.410Z,32.977295
2019-04-16T10:38:25.662Z,34.625244
2019-04-16T10:39:25.587Z,34.326172
2019-04-16T10:40:25.636Z,35.626221
2019-04-16T10:41:25.778Z,35.327148
2019-04-16T10:42:25.851Z,35.327148
2019-04-16T10:43:26.117Z,35.028076
2019-04-16T10:44:26.971Z,35.412598
2019-04-16T10:45:26.079Z,33.496094
2019-04-16T10:46:26.091Z,36.193848
2019-04-16T10:47:26.159Z,35.510254
2019-04-16T10:48:26.256Z,35.992432
2019-04-16T10:49:26.218Z,35.27832
2019-04-16T10:50:26.280Z,34.576416
2019-04-16T10:51:26.360Z,33.776855
2019-04-16T10:52:26.460Z,35.375977
2019-04-16T10:53:26.628Z,33.880615
2019-04-16T10:54:27.760Z,34.094238
2019-04-16T10:55:26.851Z,36.175537
2019-04-16T10:56:26.996Z,36.541748
2019-04-16T10:57:27.125Z,35.925293
2019-04-16T10:58:28.249Z,33.71582
2019-04-16T10:59:27.376Z,33.416748
2019-04-16T11:00:27.581Z,33.929443
2019-04-16T11:01:29.885Z,35.046387
2019-04-16T11:02:28.799Z,32.580566
2019-04-16T11:03:28.725Z,34.777832
2019-04-16T11:04:27.798Z,32.745361
2019-04-16T11:05:29.011Z,32.91626
2019-04-16T11:06:27.978Z,34.796143
2019-04-16T11:07:28.054Z,32.800293
2019-04-16T11:08:28.162Z,32.03125
2019-04-16T11:09:28.330Z,32.745361
2019-04-16T11:10:28.459Z,33.862305
2019-04-16T11:11:28.559Z,34.527588
2019-04-16T11:12:28.650Z,32.104492
2019-04-16T11:13:28.779Z,31.671143
2019-04-16T11:14:28.793Z,31.842041
2019-04-16T11:15:28.861Z,30.133057
2019-04-16T11:16:29.086Z,29.724121
2019-04-16T11:17:28.970Z,32.391357
2019-04-16T11:18:30.072Z,30.688477
2019-04-16T11:19:29.189Z,31.170654
2019-04-16T11:20:29.334Z,30.218506
2019-04-16T11:21:29.455Z,30.133057
2019-04-16T11:22:29.600Z,30.334473
2019-04-16T11:23:29.717Z,30.517578
2019-04-16T11:24:29.870Z,30.389404
2019-04-16T11:25:29.976Z,28.790283
2019-04-16T11:26:30.081Z,30.859375
2019-04-16T11:27:30.212Z,29.083252